Observation data for Morton on 05/24/2019      Previous  Date  Next       Current Mesonet Observations  Soil Data  Daily Summary Page  Observations in Plain Language
KMNS 240500Z 15012KT 15/11 A2994 RMK A01 T01490105  RH  078%=      5-min Rain = 0
KMNS 240505Z 16012KT 15/10 A2995 RMK A01 T01500104  RH  077%=      5-min Rain = 0
KMNS 240510Z 16011KT 15/10 A2995 RMK A01 T01530103  RH  075%=      5-min Rain = 0
KMNS 240515Z 15007G12KT 15/10 A2995 RMK A01 T01480103  RH  077%=      5-min Rain = 0
KMNS 240520Z 14006KT 15/11 A2994 RMK A01 T01470105  RH  078%=      5-min Rain = 0
KMNS 240525Z 15007KT 15/10 A2994 RMK A01 T01450104  RH  079%=      5-min Rain = 0
KMNS 240530Z 15006G11KT 15/11 A2995 RMK A01 T01460106  RH  080%=      5-min Rain = 0
KMNS 240535Z 15009KT 15/11 A2996 RMK A01 T01480107  RH  079%=      5-min Rain = 0
KMNS 240540Z 17010KT 15/11 A2996 RMK A01 T01470108  RH  080%=      5-min Rain = 0
KMNS 240545Z 19008KT 15/11 A2996 RMK A01 T01490109  RH  080%=      5-min Rain = 0
KMNS 240550Z 19005KT 15/11 A2995 RMK A01 T01490110  RH  080%=      5-min Rain = 0
KMNS 240555Z 17007KT 15/11 A2997 RMK A01 T01480112  RH  082%=      5-min Rain = 0
KMNS 240600Z 15007KT 15/11 A2996 RMK A01 T01510112  RH  080%=      5-min Rain = 0
KMNS 240605Z 14006KT 15/11 A2996 RMK A01 T01520111  RH  079%=      5-min Rain = 0
KMNS 240610Z 15008KT 15/11 A2997 RMK A01 T01500111  RH  080%=      5-min Rain = 0
KMNS 240615Z 14008KT 15/11 A2997 RMK A01 T01470111  RH  082%=      5-min Rain = 0
KMNS 240620Z 17007KT 15/11 A2996 RMK A01 T01450111  RH  083%=      5-min Rain = 0
KMNS 240625Z 16005KT 15/11 A2995 RMK A01 T01450111  RH  083%=      5-min Rain = 0
KMNS 240630Z 16007KT 14/11 A2995 RMK A01 T01430111  RH  084%=      5-min Rain = 0
KMNS 240635Z 17005KT 14/11 A2995 RMK A01 T01420111  RH  084%=      5-min Rain = 0
KMNS 240640Z 16007KT 14/11 A2995 RMK A01 T01420111  RH  084%=      5-min Rain = 0
KMNS 240645Z 10002KT 14/11 A2994 RMK A01 T01420110  RH  084%=      5-min Rain = 0
KMNS 240650Z 17003KT 14/11 A2994 RMK A01 T01390109  RH  085%=      5-min Rain = 0
KMNS 240655Z 20002KT 14/11 A2994 RMK A01 T01390110  RH  086%=      5-min Rain = 0
KMNS 240700Z 19002KT 14/11 A2994 RMK A01 T01400111  RH  086%=      5-min Rain = 0
KMNS 240705Z 18001KT 14/11 A2994 RMK A01 T01400113  RH  087%=      5-min Rain = 0
KMNS 240710Z 13002KT 14/11 A2994 RMK A01 T01360110  RH  087%=      5-min Rain = 0
KMNS 240715Z 12002KT 14/11 A2994 RMK A01 T01360112  RH  088%=      5-min Rain = 0
KMNS 240720Z 13002KT 14/11 A2994 RMK A01 T01360111  RH  088%=      5-min Rain = 0
KMNS 240725Z 11004KT 14/11 A2994 RMK A01 T01350112  RH  089%=      5-min Rain = 0
KMNS 240730Z 11005KT 13/11 A2994 RMK A01 T01340113  RH  090%=      5-min Rain = 0
KMNS 240735Z 15002KT 14/11 A2994 RMK A01 T01350114  RH  091%=      5-min Rain = 0
KMNS 240740Z 17004KT 13/11 A2995 RMK A01 T01340113  RH  090%=      5-min Rain = 0
KMNS 240745Z 17001KT 13/11 A2994 RMK A01 T01330112  RH  090%=      5-min Rain = 0
KMNS 240750Z 20003KT 14/11 A2994 RMK A01 T01350113  RH  090%=      5-min Rain = 0
KMNS 240755Z 25001KT 14/11 A2994 RMK A01 T01350114  RH  090%=      5-min Rain = 0
KMNS 240800Z 21002KT 14/12 A2995 RMK A01 T01350115  RH  091%=      5-min Rain = 0
KMNS 240805Z 18004KT 14/12 A2996 RMK A01 T01360118  RH  092%=      5-min Rain = 0
KMNS 240810Z 14005KT 14/12 A2996 RMK A01 T01370118  RH  092%=      5-min Rain = 0
KMNS 240815Z 14005KT 14/12 A2996 RMK A01 T01380119  RH  091%=      5-min Rain = 0
KMNS 240820Z 14002KT 14/12 A2995 RMK A01 T01380116  RH  090%=      5-min Rain = 0
KMNS 240825Z 14001KT 14/11 A2995 RMK A01 T01380114  RH  089%=      5-min Rain = 0
KMNS 240830Z 22002KT 14/11 A2994 RMK A01 T01390114  RH  088%=      5-min Rain = 0
KMNS 240835Z 00005G10KT 14/12 A2994 RMK A01 T01410117  RH  089%=      5-min Rain = 0
KMNS 240840Z 02005G10KT 14/12 A2994 RMK A01 T01390116  RH  090%=      5-min Rain = 0
KMNS 240845Z 34001KT 14/11 A2995 RMK A01 T01380114  RH  089%=      5-min Rain = 0
KMNS 240850Z 08001KT 14/11 A2996 RMK A01 T01370114  RH  089%=      5-min Rain = 0
KMNS 240855Z 09005KT 14/12 A2996 RMK A01 T01380117  RH  090%=      5-min Rain = 0
KMNS 240900Z 08005KT 14/12 A2996 RMK A01 T01380116  RH  090%=      5-min Rain = 0
KMNS 240905Z 09005KT 14/12 A2996 RMK A01 T01380116  RH  090%=      5-min Rain = 0
KMNS 240910Z 09004KT 14/12 A2996 RMK A01 T01370116  RH  091%=      5-min Rain = 0
KMNS 240915Z 07004KT 14/12 A2996 RMK A01 T01380118  RH  091%=      5-min Rain = 0
KMNS 240920Z 05002KT 14/12 A2996 RMK A01 T01390119  RH  092%=      5-min Rain = 0
KMNS 240925Z 32001KT 14/12 A2995 RMK A01 T01390120  RH  091%=      5-min Rain = 0
KMNS 240930Z 28002KT 14/12 A2996 RMK A01 T01400121  RH  092%=      5-min Rain = 0
KMNS 240935Z 27003KT 14/12 A2996 RMK A01 T01410122  RH  092%=      5-min Rain = 0
KMNS 240940Z 27002KT 14/12 A2996 RMK A01 T01410123  RH  092%=      5-min Rain = 0
KMNS 240945Z 15001KT 14/12 A2996 RMK A01 T01400122  RH  092%=      5-min Rain = 0
KMNS 240950Z 20002KT 14/12 A2996 RMK A01 T01410124  RH  093%=      5-min Rain = 0
KMNS 240955Z 23001KT 14/13 A2996 RMK A01 T01420125  RH  093%=      5-min Rain = 0
KMNS 241000Z 25001KT 14/13 A2996 RMK A01 T01420125  RH  093%=      5-min Rain = 0
KMNS 241005Z 25001KT 14/12 A2996 RMK A01 T01420124  RH  093%=      5-min Rain = 0
KMNS 241010Z 28001KT 14/13 A2996 RMK A01 T01430125  RH  093%=      5-min Rain = 0
KMNS 241015Z 26002KT 14/13 A2996 RMK A01 T01430125  RH  093%=      5-min Rain = 0
KMNS 241020Z 31002KT 14/13 A2996 RMK A01 T01420125  RH  093%=      5-min Rain = 0
KMNS 241025Z 28003KT 14/12 A2996 RMK A01 T01410124  RH  093%=      5-min Rain = 0
KMNS 241030Z 30004KT 14/13 A2996 RMK A01 T01430126  RH  093%=      5-min Rain = 0
KMNS 241035Z 27004KT 14/13 A2997 RMK A01 T01440127  RH  094%=      5-min Rain = 0
KMNS 241040Z 29004KT 14/13 A2996 RMK A01 T01440128  RH  094%=      5-min Rain = 0
KMNS 241045Z 28004KT 14/13 A2996 RMK A01 T01430126  RH  093%=      5-min Rain = 0
KMNS 241050Z 29003KT 14/13 A2996 RMK A01 T01430126  RH  093%=      5-min Rain = 0
KMNS 241055Z 28004KT 14/13 A2997 RMK A01 T01440127  RH  093%=      5-min Rain = 0
KMNS 241100Z 28003KT 15/13 A2997 RMK A01 T01460128  RH  093%=      5-min Rain = 0
KMNS 241105Z 29003KT 15/13 A2997 RMK A01 T01460127  RH  092%=      5-min Rain = 0
KMNS 241110Z 29003KT 15/13 A2997 RMK A01 T01460128  RH  092%=      5-min Rain = 0
KMNS 241115Z 30001KT 15/13 A2997 RMK A01 T01470128  RH  092%=      5-min Rain = 0
KMNS 241120Z 33002KT 15/13 A2997 RMK A01 T01470128  RH  092%=      5-min Rain = 0
KMNS 241125Z 32005KT 15/13 A2997 RMK A01 T01450127  RH  093%=      5-min Rain = 0
KMNS 241130Z 32005KT 14/13 A2997 RMK A01 T01430126  RH  093%=      5-min Rain = 0
KMNS 241135Z 31005KT 14/13 A2997 RMK A01 T01420125  RH  093%=      5-min Rain = 0
KMNS 241140Z 31004KT 14/13 A2997 RMK A01 T01430126  RH  093%=      5-min Rain = 0
KMNS 241145Z 30004KT 15/13 A2998 RMK A01 T01450128  RH  094%=      5-min Rain = 0
KMNS 241150Z 31005KT 15/13 A2998 RMK A01 T01450129  RH  094%=      5-min Rain = 0
KMNS 241155Z 32004KT 15/13 A2998 RMK A01 T01450129  RH  094%=      5-min Rain = 0
KMNS 241200Z 32004KT 15/13 A2999 RMK A01 T01460129  RH  093%=      5-min Rain = 0
KMNS 241205Z 30004KT 15/13 A2999 RMK A01 T01470129  RH  093%=      5-min Rain = 0
KMNS 241210Z 30003KT 15/13 A2999 RMK A01 T01470129  RH  092%=      5-min Rain = 0
KMNS 241215Z 32002KT 15/13 A2999 RMK A01 T01480129  RH  092%=      5-min Rain = 0
KMNS 241220Z 34001KT 15/13 A2999 RMK A01 T01500130  RH  091%=      5-min Rain = 0
KMNS 241225Z 35000KT 15/13 A2999 RMK A01 T01520132  RH  091%=      5-min Rain = 0
KMNS 241230Z 07002KT 15/13 A2999 RMK A01 T01520132  RH  091%=      5-min Rain = 0
KMNS 241235Z 04002KT 15/13 A2999 RMK A01 T01530132  RH  091%=      5-min Rain = 0
KMNS 241240Z 02002KT 15/13 A30 RMK A01 T01530132  RH  091%=      5-min Rain = 0
KMNS 241245Z 02001KT 15/13 A30 RMK A01 T01540133  RH  090%=      5-min Rain = 0
KMNS 241250Z 33002KT 16/13 A30 RMK A01 T01550132  RH  090%=      5-min Rain = 0
KMNS 241255Z 35002KT 16/13 A30 RMK A01 T01570133  RH  089%=      5-min Rain = 0
KMNS 241300Z 01002KT 16/13 A30 RMK A01 T01600134  RH  088%=      5-min Rain = 0
KMNS 241305Z 35003KT 16/13 A30 RMK A01 T01620133  RH  086%=      5-min Rain = 0
KMNS 241310Z 35003KT 16/13 A30 RMK A01 T01630132  RH  085%=      5-min Rain = 0
KMNS 241315Z 36003KT 16/13 A30 RMK A01 T01620130  RH  085%=      5-min Rain = 0
KMNS 241320Z 00002KT 16/13 A3001 RMK A01 T01630131  RH  084%=      5-min Rain = 0
KMNS 241325Z 35003KT 16/13 A3001 RMK A01 T01640129  RH  083%=      5-min Rain = 0
KMNS 241330Z 34003KT 16/13 A30 RMK A01 T01640129  RH  083%=      5-min Rain = 0
KMNS 241335Z 01003KT 17/13 A3001 RMK A01 T01660131  RH  083%=      5-min Rain = 0
KMNS 241340Z 03002KT 17/13 A3001 RMK A01 T01660128  RH  082%=      5-min Rain = 0
KMNS 241345Z 02001KT 17/13 A3001 RMK A01 T01670127  RH  081%=      5-min Rain = 0
KMNS 241350Z 02002KT 17/13 A3001 RMK A01 T01690128  RH  080%=      5-min Rain = 0
KMNS 241355Z 04003KT 17/13 A3001 RMK A01 T01730133  RH  080%=      5-min Rain = 0
KMNS 241400Z 03002KT 18/14 A30 RMK A01 T01770135  RH  079%=      5-min Rain = 0
KMNS 241405Z 05003KT 18/14 A30 RMK A01 T01800135  RH  078%=      5-min Rain = 0
KMNS 241410Z 04003KT 18/14 A30 RMK A01 T01810135  RH  077%=      5-min Rain = 0
KMNS 241415Z 04002KT 18/13 A30 RMK A01 T01830133  RH  076%=      5-min Rain = 0
KMNS 241420Z 03002KT 19/13 A30 RMK A01 T01860134  RH  075%=      5-min Rain = 0
KMNS 241425Z 06002KT 19/13 A3001 RMK A01 T01890134  RH  073%=      5-min Rain = 0
KMNS 241430Z 05002KT 19/14 A3001 RMK A01 T01930137  RH  073%=      5-min Rain = 0
KMNS 241435Z 07002KT 20/14 A3001 RMK A01 T01980138  RH  071%=      5-min Rain = 0
KMNS 241440Z 11004KT 20/14 A3001 RMK A01 T01980137  RH  071%=      5-min Rain = 0
KMNS 241445Z 10004KT 20/14 A3001 RMK A01 T01970137  RH  071%=      5-min Rain = 0
KMNS 241450Z 11004KT 20/14 A3001 RMK A01 T01960137  RH  072%=      5-min Rain = 0
KMNS 241455Z 10004KT 20/14 A3001 RMK A01 T01980138  RH  071%=      5-min Rain = 0
KMNS 241500Z 09004KT 20/14 A3001 RMK A01 T02010141  RH  071%=      5-min Rain = 0
KMNS 241505Z 10005KT 21/14 A30 RMK A01 T02050143  RH  071%=      5-min Rain = 0
KMNS 241510Z 10005KT 21/15 A30 RMK A01 T02060145  RH  071%=      5-min Rain = 0
KMNS 241515Z 11006KT 21/15 A3001 RMK A01 T02060145  RH  071%=      5-min Rain = 0
KMNS 241520Z 11006KT 21/15 A3001 RMK A01 T02060148  RH  072%=      5-min Rain = 0
KMNS 241525Z 10006KT 21/15 A3001 RMK A01 T02060147  RH  072%=      5-min Rain = 0
KMNS 241530Z 11005KT 21/15 A3001 RMK A01 T02060148  RH  073%=      5-min Rain = 0
KMNS 241535Z 12006KT 21/15 A3001 RMK A01 T02090151  RH  073%=      5-min Rain = 0
KMNS 241540Z 12005KT 21/15 A3001 RMK A01 T02110151  RH  072%=      5-min Rain = 0
KMNS 241545Z 13004KT 22/15 A3001 RMK A01 T02160154  RH  071%=      5-min Rain = 0
KMNS 241550Z 13004KT 22/16 A3001 RMK A01 T02180156  RH  071%=      5-min Rain = 0
KMNS 241555Z 13003KT 22/16 A3001 RMK A01 T02170157  RH  072%=      5-min Rain = 0
KMNS 241600Z 15004KT 22/16 A3001 RMK A01 T02180158  RH  072%=      5-min Rain = 0
KMNS 241605Z 12004KT 22/16 A3001 RMK A01 T02170159  RH  073%=      5-min Rain = 0
KMNS 241610Z 14004KT 22/16 A3001 RMK A01 T02180160  RH  073%=      5-min Rain = 0
KMNS 241615Z 15001KT 22/16 A3001 RMK A01 T02160158  RH  073%=      5-min Rain = 0
KMNS 241620Z 15002KT 22/16 A3001 RMK A01 T02200162  RH  073%=      5-min Rain = 0
KMNS 241625Z 14004KT 22/16 A3001 RMK A01 T02220162  RH  072%=      5-min Rain = 0
KMNS 241630Z 14003KT 22/16 A3001 RMK A01 T02210163  RH  073%=      5-min Rain = 0
KMNS 241635Z 16004KT 23/16 A3001 RMK A01 T02250164  RH  072%=      5-min Rain = 0
KMNS 241640Z 14004KT 22/16 A3001 RMK A01 T02230164  RH  072%=      5-min Rain = 0
KMNS 241645Z 14003KT 23/17 A3001 RMK A01 T02260166  RH  072%=      5-min Rain = 0
KMNS 241650Z 14002KT 23/16 A3001 RMK A01 T02250163  RH  071%=      5-min Rain = 0
KMNS 241655Z 16005KT 23/17 A3001 RMK A01 T02280166  RH  072%=      5-min Rain = 0
KMNS 241700Z 15005KT 23/17 A3001 RMK A01 T02290167  RH  071%=      5-min Rain = 0
KMNS 241705Z 14004KT 23/17 A3001 RMK A01 T02290166  RH  071%=      5-min Rain = 0
KMNS 241710Z 14004KT 23/17 A3001 RMK A01 T02300171  RH  073%=      5-min Rain = 0
KMNS 241715Z 14004KT 23/17 A3001 RMK A01 T02320172  RH  072%=      5-min Rain = 0
KMNS 241720Z 15004KT 23/16 A3001 RMK A01 T02320162  RH  068%=      5-min Rain = 0
KMNS 241725Z 15005KT 24/17 A3001 RMK A01 T02350166  RH  068%=      5-min Rain = 0
KMNS 241730Z 15004KT 24/16 A30 RMK A01 T02360162  RH  066%=      5-min Rain = 0
KMNS 241735Z 14004KT 24/16 A30 RMK A01 T02370157  RH  063%=      5-min Rain = 0
KMNS 241740Z 14003KT 24/15 A30 RMK A01 T02440154  RH  060%=      5-min Rain = 0
KMNS 241745Z 15003KT 24/15 A30 RMK A01 T02420149  RH  059%=      5-min Rain = 0
KMNS 241750Z 13003KT 25/15 A30 RMK A01 T02450148  RH  057%=      5-min Rain = 0
KMNS 241755Z 09003KT 25/15 A30 RMK A01 T02450145  RH  056%=      5-min Rain = 0
KMNS 241800Z 16003KT 25/15 A2999 RMK A01 T02450151  RH  058%=      5-min Rain = 0
KMNS 241805Z 14003KT 25/15 A2999 RMK A01 T02450145  RH  056%=      5-min Rain = 0
KMNS 241810Z 16004KT 25/12 A2999 RMK A01 T02500116  RH  045%=      5-min Rain = 0
KMNS 241815Z 17004KT 25/12 A2998 RMK A01 T02530120  RH  045%=      5-min Rain = 0
KMNS 241820Z 14003KT 25/12 A2998 RMK A01 T02520118  RH  045%=      5-min Rain = 0
KMNS 241825Z 20003KT 26/12 A2998 RMK A01 T02550123  RH  046%=      5-min Rain = 0
KMNS 241830Z 21002KT 26/12 A2997 RMK A01 T02560115  RH  043%=      5-min Rain = 0
KMNS 241835Z 22004KT 26/11 A2997 RMK A01 T02590106  RH  039%=      5-min Rain = 0
KMNS 241840Z 18004KT 26/11 A2997 RMK A01 T02620111  RH  040%=      5-min Rain = 0
KMNS 241845Z 22003KT 26/10 A2996 RMK A01 T02610103  RH  038%=      5-min Rain = 0
KMNS 241850Z 20002KT 27/11 A2996 RMK A01 T02650110  RH  039%=      5-min Rain = 0
KMNS 241855Z 19004KT 27/12 A2996 RMK A01 T02700117  RH  040%=      5-min Rain = 0
KMNS 241900Z 24002KT 28/09 A2996 RMK A01 T02750086  RH  031%=      5-min Rain = 0
KMNS 241905Z 19005KT 28/07 A2996 RMK A01 T02750073  RH  029%=      5-min Rain = 0
KMNS 241910Z 23005KT 27/07 A2996 RMK A01 T02720070  RH  029%=      5-min Rain = 0
KMNS 241915Z 27003G9KT 28/05 A2996 RMK A01 T02770048  RH  024%=      5-min Rain = 0
KMNS 241920Z 24004G9KT 28/06 A2996 RMK A01 T02770062  RH  026%=      5-min Rain = 0
KMNS 241925Z 18005KT 28/07 A2995 RMK A01 T02790065  RH  026%=      5-min Rain = 0
KMNS 241930Z 19005KT 28/07 A2995 RMK A01 T02800072  RH  028%=      5-min Rain = 0
KMNS 241935Z 21004KT 28/07 A2995 RMK A01 T02810073  RH  028%=      5-min Rain = 0
KMNS 241940Z 18004KT 28/07 A2995 RMK A01 T02820071  RH  027%=      5-min Rain = 0
KMNS 241945Z 18005KT 28/07 A2995 RMK A01 T02820071  RH  027%=      5-min Rain = 0
KMNS 241950Z 21004KT 29/07 A2995 RMK A01 T02860068  RH  026%=      5-min Rain = 0
KMNS 241955Z 18003KT 29/07 A2994 RMK A01 T02860067  RH  026%=      5-min Rain = 0
KMNS 242000Z 19003KT 28/07 A2994 RMK A01 T02820069  RH  027%=      5-min Rain = 0
KMNS 242005Z 18005KT 28/07 A2994 RMK A01 T02840071  RH  027%=      5-min Rain = 0
KMNS 242010Z 15006KT 29/07 A2994 RMK A01 T02850071  RH  027%=      5-min Rain = 0
KMNS 242015Z 15004KT 28/07 A2994 RMK A01 T02820066  RH  026%=      5-min Rain = 0
KMNS 242020Z 17006G11KT 28/08 A2993 RMK A01 T02840076  RH  028%=      5-min Rain = 0
KMNS 242025Z 18007KT 29/08 A2993 RMK A01 T02880078  RH  028%=      5-min Rain = 0
KMNS 242030Z 14006KT 29/08 A2993 RMK A01 T02890083  RH  028%=      5-min Rain = 0
KMNS 242035Z 16006KT 29/08 A2993 RMK A01 T02890082  RH  028%=      5-min Rain = 0
KMNS 242040Z 13006KT 29/08 A2993 RMK A01 T02880084  RH  029%=      5-min Rain = 0
KMNS 242045Z 15008KT 29/09 A2992 RMK A01 T02910088  RH  029%=      5-min Rain = 0
KMNS 242050Z 15007KT 29/08 A2992 RMK A01 T02910080  RH  027%=      5-min Rain = 0
KMNS 242055Z 15007KT 29/09 A2992 RMK A01 T02910085  RH  028%=      5-min Rain = 0
KMNS 242100Z 16007G12KT 30/09 A2991 RMK A01 T02950085  RH  028%=      5-min Rain = 0
KMNS 242105Z 17007KT 29/08 A2991 RMK A01 T02940084  RH  028%=      5-min Rain = 0
KMNS 242110Z 17006KT 29/07 A2991 RMK A01 T02940067  RH  025%=      5-min Rain = 0
KMNS 242115Z 16007KT 30/08 A299 RMK A01 T02960079  RH  026%=      5-min Rain = 0
KMNS 242120Z 17008G13KT 30/08 A299 RMK A01 T02970075  RH  026%=      5-min Rain = 0
KMNS 242125Z 16008KT 30/07 A299 RMK A01 T02970070  RH  025%=      5-min Rain = 0
KMNS 242130Z 16007KT 30/07 A299 RMK A01 T02980069  RH  024%=      5-min Rain = 0
KMNS 242135Z 16009KT 30/07 A299 RMK A01 T02980067  RH  024%=      5-min Rain = 0
KMNS 242140Z 19010KT 30/07 A299 RMK A01 T03010070  RH  024%=      5-min Rain = 0
KMNS 242145Z 19009G14KT 30/06 A2989 RMK A01 T02980061  RH  023%=      5-min Rain = 0
KMNS 242150Z 18010G15KT 30/07 A2989 RMK A01 T03010065  RH  023%=      5-min Rain = 0
KMNS 242155Z 18011KT 30/06 A2989 RMK A01 T02990062  RH  023%=      5-min Rain = 0
KMNS 242200Z 17011KT 30/06 A2989 RMK A01 T03010063  RH  023%=      5-min Rain = 0
KMNS 242205Z 18010KT 30/07 A2988 RMK A01 T03000067  RH  024%=      5-min Rain = 0
KMNS 242210Z 18010KT 30/07 A2988 RMK A01 T03030068  RH  023%=      5-min Rain = 0
KMNS 242215Z 18011KT 30/07 A2988 RMK A01 T03040069  RH  024%=      5-min Rain = 0
KMNS 242220Z 19012KT 30/07 A2988 RMK A01 T03020067  RH  024%=      5-min Rain = 0
KMNS 242225Z 18012KT 30/06 A2988 RMK A01 T03020057  RH  022%=      5-min Rain = 0
KMNS 242230Z 17008G13KT 30/05 A2987 RMK A01 T03030053  RH  021%=      5-min Rain = 0
KMNS 242235Z 17009KT 30/06 A2987 RMK A01 T03030056  RH  022%=      5-min Rain = 0
KMNS 242240Z 18009G14KT 30/06 A2987 RMK A01 T03040058  RH  022%=      5-min Rain = 0
KMNS 242245Z 19010KT 30/06 A2987 RMK A01 T03030058  RH  022%=      5-min Rain = 0
KMNS 242250Z 19011KT 31/06 A2987 RMK A01 T03050064  RH  023%=      5-min Rain = 0
KMNS 242255Z 19012KT 30/06 A2987 RMK A01 T03030055  RH  021%=      5-min Rain = 0
KMNS 242300Z 19010KT 30/06 A2986 RMK A01 T03040058  RH  022%=      5-min Rain = 0
KMNS 242305Z 21008KT 30/05 A2986 RMK A01 T03030054  RH  021%=      5-min Rain = 0
KMNS 242310Z 20010KT 30/05 A2986 RMK A01 T03040049  RH  020%=      5-min Rain = 0
KMNS 242315Z 19009KT 30/05 A2986 RMK A01 T03030045  RH  020%=      5-min Rain = 0
KMNS 242320Z 18007KT 30/04 A2986 RMK A01 T03030044  RH  020%=      5-min Rain = 0
KMNS 242325Z 18007KT 31/04 A2986 RMK A01 T03060041  RH  019%=      5-min Rain = 0
KMNS 242330Z 19007KT 30/05 A2985 RMK A01 T03040045  RH  020%=      5-min Rain = 0
KMNS 242335Z 17007KT 31/06 A2985 RMK A01 T03060055  RH  021%=      5-min Rain = 0
KMNS 242340Z 18008KT 31/06 A2985 RMK A01 T03060060  RH  022%=      5-min Rain = 0
KMNS 242345Z 19010KT 31/06 A2985 RMK A01 T03060058  RH  021%=      5-min Rain = 0
KMNS 242350Z 19012KT 30/06 A2985 RMK A01 T03040055  RH  021%=      5-min Rain = 0
KMNS 242355Z 19012KT 30/05 A2985 RMK A01 T03030053  RH  021%=      5-min Rain = 0
KMNS 250000Z 19011KT 30/06 A2985 RMK A01 T03020059  RH  022%=      5-min Rain = 0
KMNS 250005Z 17009KT 30/07 A2985 RMK A01 T03010067  RH  024%=      5-min Rain = 0
KMNS 250010Z 16008KT 30/07 A2985 RMK A01 T02980069  RH  024%=      5-min Rain = 0
KMNS 250015Z 17008KT 30/08 A2985 RMK A01 T02970081  RH  027%=      5-min Rain = 0
KMNS 250020Z 17008G13KT 30/08 A2985 RMK A01 T02950082  RH  027%=      5-min Rain = 0
KMNS 250025Z 17008KT 29/08 A2985 RMK A01 T02930084  RH  028%=      5-min Rain = 0
KMNS 250030Z 13009G15KT 29/11 A2985 RMK A01 T02890106  RH  034%=      5-min Rain = 0
KMNS 250035Z 10013G19KT 25/17 A2985 RMK A01 T02490166  RH  063%=      5-min Rain = 0
KMNS 250040Z 09016KT 24/17 A2985 RMK A01 T02400165  RH  066%=      5-min Rain = 0
KMNS 250045Z 09015KT 24/16 A2984 RMK A01 T02380161  RH  065%=      5-min Rain = 0
KMNS 250050Z 10014KT 24/16 A2985 RMK A01 T02370157  RH  064%=      5-min Rain = 0
KMNS 250055Z 10012KT 24/16 A2985 RMK A01 T02380157  RH  063%=      5-min Rain = 0
KMNS 250100Z 10010KT 24/16 A2986 RMK A01 T02370158  RH  064%=      5-min Rain = 0
KMNS 250105Z 10011KT 24/16 A2986 RMK A01 T02370160  RH  065%=      5-min Rain = 0
KMNS 250110Z 11009KT 24/16 A2985 RMK A01 T02360161  RH  066%=      5-min Rain = 0
KMNS 250115Z 11008KT 24/16 A2985 RMK A01 T02350162  RH  067%=      5-min Rain = 0
KMNS 250120Z 11008KT 24/17 A2986 RMK A01 T02350165  RH  068%=      5-min Rain = 0
KMNS 250125Z 11008KT 24/17 A2986 RMK A01 T02360167  RH  069%=      5-min Rain = 0
KMNS 250130Z 11009KT 24/17 A2987 RMK A01 T02360170  RH  070%=      5-min Rain = 0
KMNS 250135Z 14013G22KT 24/18 A2987 RMK A01 T02410177  RH  071%=      5-min Rain = 0
KMNS 250140Z 15014G20KT 25/18 A2988 RMK A01 T02490183  RH  070%=      5-min Rain = 0
KMNS 250145Z 15013G18KT 25/18 A2988 RMK A01 T02470183  RH  071%=      5-min Rain = 0
KMNS 250150Z 15014G21KT 25/18 A2989 RMK A01 T02450183  RH  072%=      5-min Rain = 0
KMNS 250155Z 15014G22KT 24/18 A2989 RMK A01 T02420183  RH  073%=      5-min Rain = 0
KMNS 250200Z 14013G19KT 24/18 A299 RMK A01 T02400184  RH  075%=      5-min Rain = 0
KMNS 250205Z 15017G25KT 24/18 A299 RMK A01 T02380183  RH  075%=      5-min Rain = 0
KMNS 250210Z 14014G20KT 24/18 A2991 RMK A01 T02370183  RH  075%=      5-min Rain = 0
KMNS 250215Z 14013KT 23/18 A2991 RMK A01 T02340184  RH  077%=      5-min Rain = 0
KMNS 250220Z 13015G20KT 23/18 A2992 RMK A01 T02320181  RH  077%=      5-min Rain = 0
KMNS 250225Z 12013KT 22/18 A2992 RMK A01 T02210176  RH  079%=      5-min Rain = 0
KMNS 250230Z 12013KT 21/17 A2992 RMK A01 T02140172  RH  081%=      5-min Rain = 0
KMNS 250235Z 13013G18KT 22/18 A2992 RMK A01 T02160175  RH  082%=      5-min Rain = 0
KMNS 250240Z 13012G17KT 22/18 A2992 RMK A01 T02180177  RH  082%=      5-min Rain = 0
KMNS 250245Z 12013G18KT 22/18 A2992 RMK A01 T02190178  RH  082%=      5-min Rain = 0
KMNS 250250Z 12014KT 22/18 A2992 RMK A01 T02190179  RH  082%=      5-min Rain = 0
KMNS 250255Z 12012KT 22/18 A2993 RMK A01 T02180179  RH  083%=      5-min Rain = 0
KMNS 250300Z 13010KT 22/18 A2993 RMK A01 T02160180  RH  084%=      5-min Rain = 0
KMNS 250305Z 13009G14KT 22/18 A2993 RMK A01 T02180179  RH  082%=      5-min Rain = 0
KMNS 250310Z 13010KT 21/18 A2994 RMK A01 T02100175  RH  084%=      5-min Rain = 0
KMNS 250315Z 13009KT 21/18 A2994 RMK A01 T02060175  RH  087%=      5-min Rain = 0
KMNS 250320Z 12010KT 21/18 A2994 RMK A01 T02060177  RH  088%=      5-min Rain = 0
KMNS 250325Z 11012KT 21/18 A2994 RMK A01 T02060177  RH  087%=      5-min Rain = 0
KMNS 250330Z 11011G16KT 21/18 A2994 RMK A01 T02060176  RH  087%=      5-min Rain = 0
KMNS 250335Z 10012KT 20/17 A2995 RMK A01 T02030173  RH  087%=      5-min Rain = 0
KMNS 250340Z 10014KT 20/17 A2995 RMK A01 T02020172  RH  087%=      5-min Rain = 0
KMNS 250345Z 10014KT 20/17 A2995 RMK A01 T02020172  RH  087%=      5-min Rain = 0
KMNS 250350Z 10015KT 20/17 A2995 RMK A01 T02020172  RH  087%=      5-min Rain = 0
KMNS 250355Z 11014KT 20/17 A2996 RMK A01 T02010172  RH  088%=      5-min Rain = 0
KMNS 250400Z 11013KT 20/17 A2996 RMK A01 T02020173  RH  088%=      5-min Rain = 0
KMNS 250405Z 12012KT 20/17 A2996 RMK A01 T02010173  RH  088%=      5-min Rain = 0
KMNS 250410Z 12013KT 20/17 A2996 RMK A01 T01990173  RH  089%=      5-min Rain = 0
KMNS 250415Z 11013KT 20/17 A2997 RMK A01 T01990173  RH  090%=      5-min Rain = 0
KMNS 250420Z 11012KT 20/17 A2997 RMK A01 T01970172  RH  090%=      5-min Rain = 0
KMNS 250425Z 11012KT 19/17 A2997 RMK A01 T01940170  RH  091%=      5-min Rain = 0
KMNS 250430Z 11011KT 19/17 A2997 RMK A01 T01920170  RH  091%=      5-min Rain = 0
KMNS 250435Z 11012G17KT 19/17 A2998 RMK A01 T01910169  RH  091%=      5-min Rain = 0
KMNS 250440Z 11014KT 19/17 A2998 RMK A01 T01890167  RH  091%=      5-min Rain = 0
KMNS 250445Z 11014KT 19/17 A2998 RMK A01 T01890167  RH  092%=      5-min Rain = 0
KMNS 250450Z 12013KT 19/17 A2998 RMK A01 T01900168  RH  092%=      5-min Rain = 0
KMNS 250455Z 12014KT 19/17 A2998 RMK A01 T01900168  RH  092%=      5-min Rain = 0

Page generated in 0.0093 seconds.